createdAt,value
2022-10-23T00:01:37.721Z,10.50
2022-10-23T00:04:13.210Z,10.50
2022-10-23T00:06:41.668Z,10.50
2022-10-23T00:09:12.493Z,10.30
2022-10-23T00:11:41.461Z,10.40
2022-10-23T00:14:08.868Z,10.40
2022-10-23T00:16:36.529Z,10.30
2022-10-23T00:19:04.644Z,10.30
2022-10-23T00:21:31.850Z,10.30
2022-10-23T00:23:59.119Z,10.30
2022-10-23T00:26:26.816Z,10.30
2022-10-23T00:28:54.924Z,10.20
2022-10-23T00:31:23.525Z,10.20
2022-10-23T00:33:52.112Z,10.20
2022-10-23T00:36:21.280Z,10.10
2022-10-23T00:38:49.774Z,10.10
2022-10-23T00:41:29.265Z,10.10
2022-10-23T00:44:30.344Z,10.10
2022-10-23T00:46:59.509Z,10.00
2022-10-23T00:49:28.129Z,10.00
2022-10-23T00:52:04.290Z,10.00
2022-10-23T00:54:37.785Z,10.00
2022-10-23T00:57:08.268Z,9.90
2022-10-23T00:59:35.855Z,9.80
2022-10-23T01:02:03.523Z,9.90
2022-10-23T01:04:31.893Z,9.90
2022-10-23T01:07:36.916Z,9.90
2022-10-23T01:10:22.786Z,9.80
2022-10-23T01:13:12.543Z,9.80
2022-10-23T01:16:11.639Z,9.80
2022-10-23T01:18:45.604Z,9.80
2022-10-23T01:21:33.092Z,9.80
2022-10-23T01:24:29.494Z,9.70
2022-10-23T01:27:23.527Z,9.70
2022-10-23T01:29:59.463Z,9.60
2022-10-23T01:32:42.982Z,9.60
2022-10-23T01:35:29.047Z,9.60
2022-10-23T01:38:15.441Z,9.60
2022-10-23T01:41:11.298Z,9.50
2022-10-23T01:44:07.080Z,9.50
2022-10-23T01:46:37.648Z,9.50
2022-10-23T01:49:11.776Z,9.30
2022-10-23T01:51:44.043Z,9.30
2022-10-23T01:54:14.544Z,9.30
2022-10-23T01:56:46.692Z,9.30
2022-10-23T01:59:19.935Z,9.40
2022-10-23T02:01:51.381Z,9.40
2022-10-23T02:04:26.889Z,9.30
2022-10-23T02:06:54.145Z,9.20
2022-10-23T02:09:21.799Z,9.30
2022-10-23T02:11:59.959Z,9.30
2022-10-23T02:14:51.786Z,9.30
2022-10-23T02:17:33.596Z,9.30
2022-10-23T02:20:16.854Z,9.30
2022-10-23T02:22:54.518Z,9.20
2022-10-23T02:25:30.112Z,9.20
2022-10-23T02:28:01.056Z,9.20
2022-10-23T02:30:40.814Z,9.10
2022-10-23T02:33:13.264Z,9.20
2022-10-23T02:35:41.096Z,9.10
2022-10-23T02:38:42.531Z,9.10
2022-10-23T02:41:29.996Z,9.10
2022-10-23T02:44:26.569Z,9.00
2022-10-23T02:47:11.889Z,9.00
2022-10-23T02:49:46.948Z,9.00
2022-10-23T02:52:29.123Z,9.00
2022-10-23T02:55:05.843Z,8.90
2022-10-23T02:57:49.714Z,8.90
2022-10-23T03:00:22.055Z,9.00
2022-10-23T03:02:58.084Z,8.80
2022-10-23T03:05:31.920Z,8.80
2022-10-23T03:07:59.722Z,8.80
2022-10-23T03:10:27.087Z,8.70
2022-10-23T03:12:54.522Z,8.70
2022-10-23T03:15:22.120Z,8.70
2022-10-23T03:17:51.008Z,8.80
2022-10-23T03:20:18.330Z,8.80
2022-10-23T03:22:46.338Z,8.80
2022-10-23T03:25:13.674Z,8.70
2022-10-23T03:27:41.161Z,8.80
2022-10-23T03:30:10.908Z,8.70
2022-10-23T03:32:40.576Z,8.70
2022-10-23T03:35:08.508Z,8.70
2022-10-23T03:37:35.775Z,8.70
2022-10-23T03:40:04.269Z,8.70
2022-10-23T03:42:35.115Z,8.70
2022-10-23T03:45:02.368Z,8.70
2022-10-23T03:47:30.498Z,8.70
2022-10-23T03:49:58.577Z,8.70
2022-10-23T03:52:25.821Z,8.70
2022-10-23T03:54:53.101Z,8.70
2022-10-23T03:57:20.526Z,8.70
2022-10-23T03:59:47.939Z,8.60
2022-10-23T04:02:16.824Z,8.60
2022-10-23T04:04:44.020Z,8.60
2022-10-23T04:07:11.278Z,8.50
2022-10-23T04:09:38.694Z,8.60
2022-10-23T04:12:06.442Z,8.60
2022-10-23T04:14:33.856Z,8.60
2022-10-23T04:17:01.084Z,8.50
2022-10-23T04:19:28.922Z,8.60
2022-10-23T04:21:57.163Z,8.60
2022-10-23T04:24:25.704Z,8.60
2022-10-23T04:26:53.039Z,8.60
2022-10-23T04:29:24.571Z,8.50
2022-10-23T04:31:51.941Z,8.50
2022-10-23T04:34:19.744Z,8.50
2022-10-23T04:36:47.180Z,8.60
2022-10-23T04:39:14.885Z,8.60
2022-10-23T04:41:42.315Z,8.60
2022-10-23T04:44:09.514Z,8.60
2022-10-23T04:46:39.229Z,8.60
2022-10-23T04:49:06.488Z,8.60
2022-10-23T04:51:49.583Z,8.60
2022-10-23T04:54:38.079Z,8.60
2022-10-23T04:57:31.671Z,8.70
2022-10-23T05:00:02.301Z,8.70
2022-10-23T05:02:36.138Z,8.70
2022-10-23T05:05:03.720Z,8.70
2022-10-23T05:07:34.813Z,8.60
2022-10-23T05:10:31.408Z,8.70
2022-10-23T05:13:06.495Z,8.60
2022-10-23T05:15:33.801Z,8.60
2022-10-23T05:18:13.180Z,8.60
2022-10-23T05:20:41.090Z,8.60
2022-10-23T05:23:13.044Z,8.60
2022-10-23T05:25:42.801Z,8.70
2022-10-23T05:28:18.216Z,8.60
2022-10-23T05:30:46.723Z,8.60
2022-10-23T05:33:14.938Z,8.50
2022-10-23T05:35:44.567Z,8.60
2022-10-23T05:38:14.531Z,8.70
2022-10-23T05:40:42.527Z,8.60
2022-10-23T05:43:15.068Z,8.60
2022-10-23T05:46:14.608Z,8.60
2022-10-23T05:49:04.608Z,8.60
2022-10-23T05:51:40.419Z,8.50
2022-10-23T05:54:33.902Z,8.60
2022-10-23T05:57:15.457Z,8.70
2022-10-23T05:59:49.573Z,8.70
2022-10-23T06:02:40.920Z,8.70
2022-10-23T06:05:21.970Z,8.70
2022-10-23T06:08:08.886Z,8.70
2022-10-23T06:10:37.009Z,8.70
2022-10-23T06:13:07.951Z,8.70
2022-10-23T06:15:35.512Z,8.70
2022-10-23T06:18:08.130Z,8.80
2022-10-23T06:20:39.991Z,8.80
2022-10-23T06:23:12.489Z,8.80
2022-10-23T06:26:03.483Z,8.80
2022-10-23T06:28:42.168Z,8.90
2022-10-23T06:31:12.541Z,8.90
2022-10-23T06:33:40.212Z,9.00
2022-10-23T06:36:10.716Z,9.10
2022-10-23T06:38:40.821Z,9.10
2022-10-23T06:41:14.466Z,9.20
2022-10-23T06:43:42.444Z,9.30
2022-10-23T06:46:22.275Z,9.30
2022-10-23T06:49:08.172Z,9.40
2022-10-23T06:51:48.091Z,9.40
2022-10-23T06:54:17.219Z,9.50
2022-10-23T06:56:47.277Z,9.60
2022-10-23T06:59:17.903Z,9.80
2022-10-23T07:01:45.943Z,9.70
2022-10-23T07:04:14.600Z,9.80
2022-10-23T07:06:43.643Z,9.90
2022-10-23T07:09:11.319Z,10.00
2022-10-23T07:11:58.695Z,9.90
2022-10-23T07:14:38.080Z,10.20
2022-10-23T07:17:05.435Z,10.30
2022-10-23T07:19:33.649Z,10.40
2022-10-23T07:22:06.611Z,10.50
2022-10-23T07:24:55.352Z,10.60
2022-10-23T07:27:27.348Z,10.80
2022-10-23T07:29:56.965Z,10.80
2022-10-23T07:32:28.047Z,11.00
2022-10-23T07:37:50.533Z,11.30
2022-10-23T07:40:18.753Z,11.30
2022-10-23T07:42:45.977Z,11.40
2022-10-23T07:45:14.387Z,11.40
2022-10-23T07:47:50.938Z,11.50
2022-10-23T07:50:19.215Z,11.60
2022-10-23T07:52:46.883Z,11.60
2022-10-23T07:55:18.100Z,11.80
2022-10-23T07:57:49.719Z,11.80
2022-10-23T08:00:41.219Z,11.80
2022-10-23T08:03:16.980Z,12.00
2022-10-23T08:05:44.415Z,12.00
2022-10-23T08:08:11.612Z,12.00
2022-10-23T08:10:41.681Z,12.10
2022-10-23T08:13:13.670Z,12.10
2022-10-23T08:15:56.821Z,12.20
2022-10-23T08:18:50.518Z,12.40
2022-10-23T08:21:19.283Z,12.50
2022-10-23T08:23:47.508Z,12.60
2022-10-23T08:26:15.384Z,12.70
2022-10-23T08:28:42.568Z,12.80
2022-10-23T08:31:13.936Z,13.00
2022-10-23T08:33:45.113Z,13.10
2022-10-23T08:36:23.385Z,13.30
2022-10-23T08:38:54.879Z,13.50
2022-10-23T08:41:45.300Z,13.70
2022-10-23T08:44:28.027Z,13.80
2022-10-23T08:47:06.974Z,14.00
2022-10-23T08:53:14.336Z,14.30
2022-10-23T08:55:50.903Z,14.40
2022-10-23T08:58:40.404Z,14.50
2022-10-23T09:01:26.719Z,14.70
2022-10-23T09:03:54.087Z,14.80
2022-10-23T09:06:44.099Z,14.90
2022-10-23T09:09:35.614Z,15.00
2022-10-23T09:12:05.244Z,15.20
2022-10-23T09:14:51.185Z,15.30
2022-10-23T09:17:28.115Z,15.40
2022-10-23T09:20:17.924Z,15.50
2022-10-23T09:22:46.200Z,15.60
2022-10-23T09:25:25.939Z,15.70
2022-10-23T09:28:00.172Z,15.70
2022-10-23T09:30:35.870Z,15.70
2022-10-23T09:33:23.079Z,15.80
2022-10-23T09:36:00.621Z,15.90
2022-10-23T09:38:31.084Z,16.00
2022-10-23T09:41:16.050Z,16.00
2022-10-23T09:43:43.764Z,16.10
2022-10-23T09:46:12.155Z,16.30
2022-10-23T09:48:42.347Z,16.30
2022-10-23T09:51:21.135Z,16.40
2022-10-23T09:54:00.579Z,16.60
2022-10-23T09:56:40.805Z,16.70
2022-10-23T09:59:11.223Z,16.90
2022-10-23T10:01:57.680Z,17.00
2022-10-23T10:04:38.533Z,17.10
2022-10-23T10:07:24.090Z,17.20
2022-10-23T10:09:53.970Z,17.30
2022-10-23T10:12:49.744Z,17.30
2022-10-23T10:15:52.811Z,17.40
2022-10-23T10:18:32.340Z,17.40
2022-10-23T10:21:25.269Z,17.50
2022-10-23T10:24:07.339Z,17.50
2022-10-23T10:26:46.508Z,17.60
2022-10-23T10:29:51.208Z,17.70
2022-10-23T10:32:46.769Z,17.70
2022-10-23T10:35:40.185Z,17.80
2022-10-23T10:38:31.583Z,17.80
2022-10-23T10:41:16.417Z,17.90
2022-10-23T10:43:57.476Z,18.00
2022-10-23T10:46:43.059Z,18.10
2022-10-23T10:49:22.194Z,18.20
2022-10-23T10:52:49.248Z,18.20
2022-10-23T10:55:25.225Z,18.40
2022-10-23T10:57:59.986Z,18.50
2022-10-23T11:00:30.118Z,18.50
2022-10-23T11:03:37.579Z,18.60
2022-10-23T11:06:15.235Z,18.70
2022-10-23T11:08:57.408Z,18.80
2022-10-23T11:11:40.676Z,18.90
2022-10-23T11:14:19.515Z,18.90
2022-10-23T11:16:59.833Z,18.90
2022-10-23T11:19:35.606Z,19.00
2022-10-23T11:22:30.345Z,19.00
2022-10-23T11:25:19.441Z,19.10
2022-10-23T11:28:03.362Z,19.10
2022-10-23T11:31:15.365Z,19.20
2022-10-23T11:33:57.627Z,19.30
2022-10-23T11:36:52.907Z,19.40
2022-10-23T11:39:34.895Z,19.40
2022-10-23T11:42:09.748Z,19.50
2022-10-23T11:44:43.211Z,19.50
2022-10-23T11:47:38.213Z,19.60
2022-10-23T11:50:07.001Z,19.80
2022-10-23T11:52:45.459Z,19.90
2022-10-23T11:55:21.478Z,20.00
2022-10-23T11:58:13.592Z,19.90
2022-10-23T12:00:52.804Z,19.90
2022-10-23T12:03:26.580Z,19.90
2022-10-23T12:06:00.354Z,19.90
2022-10-23T12:08:31.037Z,20.00
2022-10-23T12:10:58.511Z,20.10
2022-10-23T12:13:43.534Z,20.10
2022-10-23T12:16:11.315Z,20.20
2022-10-23T12:18:55.673Z,20.30
2022-10-23T12:21:28.542Z,20.30
2022-10-23T12:24:08.068Z,20.30
2022-10-23T12:26:54.457Z,20.40
2022-10-23T12:30:00.617Z,20.50
2022-10-23T12:32:58.624Z,20.40
2022-10-23T12:35:47.620Z,20.40
2022-10-23T12:38:20.696Z,20.40
2022-10-23T12:41:00.868Z,20.40
2022-10-23T12:43:31.754Z,20.40
2022-10-23T12:46:23.700Z,20.40
2022-10-23T12:48:53.494Z,20.40
2022-10-23T12:51:32.251Z,20.50
2022-10-23T12:53:59.958Z,20.40
2022-10-23T12:56:30.530Z,20.50
2022-10-23T12:59:01.339Z,20.50
2022-10-23T13:01:33.340Z,20.60
2022-10-23T13:04:28.490Z,20.60
2022-10-23T13:06:58.749Z,20.70
2022-10-23T13:09:34.114Z,20.80
2022-10-23T13:12:29.033Z,20.90
2022-10-23T13:15:08.253Z,21.00
2022-10-23T13:17:44.261Z,21.00
2022-10-23T13:20:17.938Z,21.00
2022-10-23T13:22:48.057Z,21.00
2022-10-23T13:25:27.689Z,21.10
2022-10-23T13:28:12.891Z,21.00
2022-10-23T13:30:48.028Z,21.10
2022-10-23T13:33:21.300Z,21.10
2022-10-23T13:36:04.154Z,21.20
2022-10-23T13:38:40.257Z,21.20
2022-10-23T13:41:20.279Z,21.10
2022-10-23T13:43:48.014Z,21.10
2022-10-23T13:46:22.677Z,21.10
2022-10-23T13:48:50.080Z,21.10
2022-10-23T13:51:23.637Z,21.00
2022-10-23T13:53:53.693Z,21.00
2022-10-23T13:56:23.215Z,20.90
2022-10-23T13:58:51.182Z,20.90
2022-10-23T14:01:28.094Z,20.80
2022-10-23T14:03:56.989Z,20.70
2022-10-23T14:06:24.456Z,20.70
2022-10-23T14:08:52.054Z,20.70
2022-10-23T14:11:20.611Z,20.70
2022-10-23T14:13:48.762Z,20.70
2022-10-23T14:16:18.571Z,20.70
2022-10-23T14:18:46.120Z,20.70
2022-10-23T14:21:16.389Z,20.60
2022-10-23T14:23:43.731Z,20.60
2022-10-23T14:26:16.250Z,20.60
2022-10-23T14:28:43.951Z,20.50
2022-10-23T14:31:13.442Z,20.50
2022-10-23T14:33:42.889Z,20.40
2022-10-23T14:36:10.698Z,20.40
2022-10-23T14:38:38.285Z,20.40
2022-10-23T14:41:13.571Z,20.20
2022-10-23T14:43:42.654Z,20.20
2022-10-23T14:46:15.456Z,20.10
2022-10-23T14:48:46.106Z,20.10
2022-10-23T14:51:20.955Z,20.00
2022-10-23T14:53:49.232Z,20.00
2022-10-23T14:56:16.806Z,19.90
2022-10-23T14:58:44.043Z,19.90
2022-10-23T15:01:11.495Z,19.90
2022-10-23T15:03:38.856Z,19.80
2022-10-23T15:06:07.224Z,19.80
2022-10-23T15:08:35.295Z,19.70
2022-10-23T15:11:06.665Z,19.60
2022-10-23T15:13:36.089Z,19.50
2022-10-23T15:16:06.074Z,19.40
2022-10-23T15:21:09.184Z,19.30
2022-10-23T15:23:39.707Z,19.30
2022-10-23T15:26:12.732Z,19.20
2022-10-23T15:28:40.060Z,19.10
2022-10-23T15:31:23.128Z,19.10
2022-10-23T15:33:50.267Z,19.00
2022-10-23T15:36:17.707Z,18.90
2022-10-23T15:38:45.049Z,18.80
2022-10-23T15:41:28.876Z,18.80
2022-10-23T15:43:56.280Z,18.70
2022-10-23T15:46:23.456Z,18.70
2022-10-23T15:48:50.791Z,18.60
2022-10-23T15:51:18.052Z,18.60
2022-10-23T15:53:45.426Z,18.50
2022-10-23T15:56:12.698Z,18.40
2022-10-23T15:58:40.083Z,18.40
2022-10-23T16:01:07.755Z,18.30
2022-10-23T16:03:37.211Z,18.30
2022-10-23T16:06:13.368Z,18.20
2022-10-23T16:08:43.813Z,18.20
2022-10-23T16:11:20.295Z,18.00
2022-10-23T16:13:47.824Z,18.00
2022-10-23T16:16:16.316Z,17.90
2022-10-23T16:18:45.086Z,17.80
2022-10-23T16:21:23.893Z,17.70
2022-10-23T16:23:52.684Z,17.70
2022-10-23T16:26:20.514Z,17.60
2022-10-23T16:28:48.292Z,17.60
2022-10-23T16:31:20.325Z,17.50
2022-10-23T16:33:48.983Z,17.50
2022-10-23T16:36:17.355Z,17.40
2022-10-23T16:39:04.983Z,17.40
2022-10-23T16:41:51.066Z,17.40
2022-10-23T16:44:18.487Z,17.20
2022-10-23T16:47:06.281Z,17.30
2022-10-23T16:49:33.933Z,17.20
2022-10-23T16:52:01.159Z,17.10
2022-10-23T16:54:28.359Z,17.10
2022-10-23T16:56:55.800Z,17.00
2022-10-23T16:59:22.992Z,17.00
2022-10-23T17:01:50.427Z,16.90
2022-10-23T17:04:17.975Z,16.90
2022-10-23T17:06:45.363Z,16.80
2022-10-23T17:09:12.607Z,16.80
2022-10-23T17:11:41.112Z,16.70
2022-10-23T17:14:13.551Z,16.80
2022-10-23T17:16:40.952Z,16.70
2022-10-23T17:19:20.575Z,16.60
2022-10-23T17:21:55.472Z,16.50
2022-10-23T17:24:23.524Z,16.50
2022-10-23T17:26:51.566Z,16.50
2022-10-23T17:29:20.001Z,16.40
2022-10-23T17:31:49.702Z,16.30
2022-10-23T17:34:21.412Z,16.30
2022-10-23T17:36:51.769Z,16.30
2022-10-23T17:39:22.272Z,16.30
2022-10-23T17:41:49.841Z,16.20
2022-10-23T17:44:17.717Z,16.20
2022-10-23T17:46:44.944Z,16.10
2022-10-23T17:49:12.901Z,16.10
2022-10-23T17:51:40.340Z,16.10
2022-10-23T17:54:10.548Z,16.10
2022-10-23T17:56:38.389Z,16.20
2022-10-23T17:59:13.184Z,16.20
2022-10-23T18:01:42.665Z,16.20
2022-10-23T18:04:10.057Z,16.10
2022-10-23T18:06:44.984Z,16.20
2022-10-23T18:09:12.672Z,16.10
2022-10-23T18:11:45.331Z,16.20
2022-10-23T18:14:19.304Z,16.10
2022-10-23T18:16:46.585Z,16.00
2022-10-23T18:19:15.567Z,16.00
2022-10-23T18:21:42.803Z,15.90
2022-10-23T18:24:10.181Z,15.90
2022-10-23T18:26:39.050Z,15.80
2022-10-23T18:29:10.634Z,15.80
2022-10-23T18:31:38.584Z,15.80
2022-10-23T18:34:14.867Z,15.70
2022-10-23T18:36:42.428Z,15.70
2022-10-23T18:39:13.332Z,15.70
2022-10-23T18:41:42.632Z,15.70
2022-10-23T18:44:11.525Z,15.70
2022-10-23T18:46:38.973Z,15.70
2022-10-23T18:49:06.527Z,15.60
2022-10-23T18:51:35.026Z,15.60
2022-10-23T18:54:04.628Z,15.50
2022-10-23T18:56:33.976Z,15.40
2022-10-23T18:59:03.565Z,15.50
2022-10-23T19:01:31.733Z,15.50
2022-10-23T19:04:01.503Z,15.50
2022-10-23T19:06:29.960Z,15.50
2022-10-23T19:08:57.207Z,15.40
2022-10-23T19:11:25.935Z,15.40
2022-10-23T19:13:53.170Z,15.30
2022-10-23T19:16:29.259Z,15.30
2022-10-23T19:19:04.022Z,15.30
2022-10-23T19:21:36.287Z,15.40
2022-10-23T19:24:11.459Z,15.40
2022-10-23T19:26:40.440Z,15.20
2022-10-23T19:29:09.975Z,15.20
2022-10-23T19:31:37.460Z,15.10
2022-10-23T19:34:04.692Z,15.00
2022-10-23T19:36:32.215Z,15.00
2022-10-23T19:38:59.369Z,15.00
2022-10-23T19:41:26.713Z,15.00
2022-10-23T19:43:53.900Z,15.00
2022-10-23T19:46:21.965Z,15.00
2022-10-23T19:48:49.444Z,15.00
2022-10-23T19:51:16.661Z,15.00
2022-10-23T19:53:43.881Z,15.20
2022-10-23T19:56:12.782Z,15.10
2022-10-23T19:58:41.075Z,15.10
2022-10-23T20:01:16.861Z,15.10
2022-10-23T20:03:45.809Z,15.10
2022-10-23T20:06:15.570Z,15.10
2022-10-23T20:08:43.151Z,15.10
2022-10-23T20:11:17.901Z,15.10
2022-10-23T20:13:49.061Z,15.10
2022-10-23T20:16:25.117Z,15.20
2022-10-23T20:18:53.007Z,15.20
2022-10-23T20:21:20.515Z,15.20
2022-10-23T20:23:47.809Z,15.20
2022-10-23T20:26:17.887Z,15.10
2022-10-23T20:28:46.984Z,15.20
2022-10-23T20:31:16.295Z,15.20
2022-10-23T20:33:43.987Z,15.20
2022-10-23T20:36:24.321Z,15.30
2022-10-23T20:38:51.899Z,15.20
2022-10-23T20:41:19.709Z,15.10
2022-10-23T20:43:47.095Z,15.10
2022-10-23T20:46:14.775Z,15.10
2022-10-23T20:48:43.836Z,15.10
2022-10-23T20:51:13.808Z,15.20
2022-10-23T20:53:41.537Z,15.20
2022-10-23T20:56:33.664Z,15.20
2022-10-23T20:59:12.545Z,15.20
2022-10-23T21:01:42.294Z,15.30
2022-10-23T21:04:13.080Z,15.30
2022-10-23T21:06:57.753Z,15.30
2022-10-23T21:09:31.205Z,15.30
2022-10-23T21:11:58.553Z,15.20
2022-10-23T21:14:25.930Z,15.30
2022-10-23T21:16:53.171Z,15.50
2022-10-23T21:19:20.518Z,15.60
2022-10-23T21:21:48.516Z,15.70
2022-10-23T21:24:17.353Z,15.70
2022-10-23T21:26:45.447Z,16.00
2022-10-23T21:29:18.506Z,16.10
2022-10-23T21:31:58.583Z,16.30
2022-10-23T21:34:26.471Z,16.40
2022-10-23T21:37:12.010Z,16.50
2022-10-23T21:39:39.678Z,16.60
2022-10-23T21:42:06.915Z,16.70
2022-10-23T21:44:34.108Z,16.80
2022-10-23T21:47:01.745Z,16.80
2022-10-23T21:49:29.106Z,16.80
2022-10-23T21:51:56.487Z,16.80
2022-10-23T21:54:23.682Z,16.80
2022-10-23T21:56:53.631Z,16.90
2022-10-23T21:59:24.262Z,16.90
2022-10-23T22:01:52.170Z,16.90
2022-10-23T22:04:20.486Z,16.90
2022-10-23T22:06:49.560Z,17.00
2022-10-23T22:09:19.961Z,17.00
2022-10-23T22:11:50.119Z,16.90
2022-10-23T22:14:17.868Z,17.00
2022-10-23T22:16:45.107Z,16.90
2022-10-23T22:19:14.920Z,17.10
2022-10-23T22:21:42.629Z,16.90
2022-10-23T22:24:10.074Z,17.00
2022-10-23T22:26:42.864Z,17.00
2022-10-23T22:29:15.890Z,17.00
2022-10-23T22:31:45.696Z,17.00
2022-10-23T22:34:47.821Z,17.00
2022-10-23T22:37:13.098Z,17.00
2022-10-23T22:39:40.444Z,16.90
2022-10-23T22:42:08.021Z,17.10
2022-10-23T22:44:35.313Z,17.10
2022-10-23T22:47:02.712Z,17.10
2022-10-23T22:49:30.112Z,17.10
2022-10-23T22:51:57.435Z,17.10
2022-10-23T22:54:24.624Z,17.10
2022-10-23T22:56:52.249Z,17.10
2022-10-23T22:59:19.601Z,17.10
2022-10-23T23:01:47.522Z,17.10
2022-10-23T23:04:37.804Z,17.00
2022-10-23T23:07:07.624Z,17.10
2022-10-23T23:09:42.499Z,17.10
2022-10-23T23:12:11.717Z,17.20
2022-10-23T23:14:39.326Z,17.20
2022-10-23T23:17:07.328Z,17.10
2022-10-23T23:19:35.091Z,17.10
2022-10-23T23:22:02.879Z,17.10
2022-10-23T23:24:30.360Z,17.10
2022-10-23T23:26:57.731Z,17.30
2022-10-23T23:29:25.943Z,17.20
2022-10-23T23:31:53.132Z,17.20
2022-10-23T23:34:20.294Z,17.20
2022-10-23T23:36:47.695Z,17.20
2022-10-23T23:39:14.852Z,17.10
2022-10-23T23:41:42.075Z,17.20
2022-10-23T23:44:09.901Z,17.10
2022-10-23T23:46:37.386Z,17.10
2022-10-23T23:49:04.579Z,17.20
2022-10-23T23:51:31.851Z,17.10
2022-10-23T23:53:59.239Z,17.10
2022-10-23T23:56:26.456Z,17.10
2022-10-23T23:58:53.914Z,17.10
